createdAt,value
2023-01-22T00:00:41.304Z,97190.53
2023-01-22T00:02:43.978Z,97190.28
2023-01-22T00:04:46.746Z,97204.41
2023-01-22T00:06:49.427Z,97192.31
2023-01-22T00:08:52.502Z,97208.44
2023-01-22T00:10:57.500Z,97195.66
2023-01-22T00:13:00.167Z,97184.50
2023-01-22T00:15:02.996Z,97188.63
2023-01-22T00:17:05.683Z,97181.75
2023-01-22T00:19:08.605Z,97195.75
2023-01-22T00:21:12.652Z,97186.16
2023-01-22T00:23:15.435Z,97184.38
2023-01-22T00:25:18.102Z,97186.00
2023-01-22T00:27:22.039Z,97198.22
2023-01-22T00:29:24.751Z,97199.28
2023-01-22T00:31:27.530Z,97193.09
2023-01-22T00:33:30.521Z,97207.50
2023-01-22T00:35:34.961Z,97194.44
2023-01-22T00:37:37.565Z,97195.53
2023-01-22T00:39:40.149Z,97190.63
2023-01-22T00:41:43.706Z,97181.97
2023-01-22T00:43:48.236Z,97194.06
2023-01-22T00:45:50.868Z,97191.69
2023-01-22T00:47:53.587Z,97213.78
2023-01-22T00:49:56.276Z,97202.22
2023-01-22T00:51:59.203Z,97189.63
2023-01-22T00:54:01.935Z,97188.25
2023-01-22T00:56:05.326Z,97202.97
2023-01-22T00:58:07.940Z,97197.94
2023-01-22T01:00:15.998Z,97193.50
2023-01-22T01:02:19.062Z,97196.66
2023-01-22T01:04:21.808Z,97185.78
2023-01-22T01:06:24.647Z,97198.69
2023-01-22T01:08:28.501Z,97195.34
2023-01-22T01:10:31.263Z,97194.28
2023-01-22T01:12:33.902Z,97186.88
2023-01-22T01:14:36.549Z,97195.53
2023-01-22T01:16:43.050Z,97187.19
2023-01-22T01:18:45.830Z,97193.09
2023-01-22T01:20:54.871Z,97190.75
2023-01-22T01:22:57.639Z,97199.78
2023-01-22T01:25:00.431Z,97195.25
2023-01-22T01:27:03.415Z,97180.56
2023-01-22T01:29:07.977Z,97187.97
2023-01-22T01:31:13.115Z,97183.97
2023-01-22T01:33:17.358Z,97183.53
2023-01-22T01:35:20.009Z,97181.19
2023-01-22T01:37:22.674Z,97185.06
2023-01-22T01:39:25.302Z,97195.34
2023-01-22T01:41:27.958Z,97191.38
2023-01-22T01:43:31.311Z,97192.63
2023-01-22T01:45:35.555Z,97187.44
2023-01-22T01:47:38.255Z,97198.13
2023-01-22T01:49:48.416Z,97199.09
2023-01-22T01:51:51.485Z,97187.84
2023-01-22T01:53:54.593Z,97195.53
2023-01-22T01:55:59.191Z,97206.66
2023-01-22T01:58:06.193Z,97200.19
2023-01-22T02:00:13.624Z,97184.50
2023-01-22T02:02:19.880Z,97193.00
2023-01-22T02:04:23.830Z,97194.25
2023-01-22T02:06:28.265Z,97203.41
2023-01-22T02:08:31.080Z,97195.44
2023-01-22T02:10:33.857Z,97199.59
2023-01-22T02:12:36.656Z,97208.84
2023-01-22T02:14:42.484Z,97211.88
2023-01-22T02:16:45.568Z,97220.69
2023-01-22T02:18:48.315Z,97227.38
2023-01-22T02:20:54.959Z,97230.81
2023-01-22T02:22:57.664Z,97227.28
2023-01-22T02:25:00.717Z,97236.50
2023-01-22T02:27:03.782Z,97226.56
2023-01-22T02:29:07.893Z,97232.75
2023-01-22T02:31:10.822Z,97237.72
2023-01-22T02:33:13.671Z,97222.63
2023-01-22T02:35:16.583Z,97242.72
2023-01-22T02:37:20.616Z,97241.88
2023-01-22T02:39:23.399Z,97238.88
2023-01-22T02:41:26.772Z,97247.97
2023-01-22T02:43:29.490Z,97239.41
2023-01-22T02:45:32.384Z,97243.81
2023-01-22T02:47:36.145Z,97239.84
2023-01-22T02:49:38.852Z,97235.25
2023-01-22T02:51:41.661Z,97238.97
2023-01-22T02:53:45.690Z,97237.31
2023-01-22T02:55:49.037Z,97235.13
2023-01-22T02:57:51.845Z,97246.84
2023-01-22T02:59:54.492Z,97244.09
2023-01-22T03:01:57.453Z,97251.91
2023-01-22T03:04:10.572Z,97254.94
2023-01-22T03:06:15.872Z,97239.53
2023-01-22T03:08:19.764Z,97252.84
2023-01-22T03:10:23.833Z,97239.88
2023-01-22T03:12:26.586Z,97236.03
2023-01-22T03:14:46.802Z,97240.06
2023-01-22T03:17:07.784Z,97244.63
2023-01-22T03:19:27.989Z,97241.63
2023-01-22T03:21:30.744Z,97251.50
2023-01-22T03:23:33.492Z,97250.31
2023-01-22T03:25:37.488Z,97238.59
2023-01-22T03:28:00.927Z,97235.56
2023-01-22T03:30:04.764Z,97236.53
2023-01-22T03:32:07.782Z,97239.13
2023-01-22T03:34:10.595Z,97241.34
2023-01-22T03:36:15.414Z,97242.94
2023-01-22T03:38:18.056Z,97241.16
2023-01-22T03:40:21.717Z,97235.84
2023-01-22T03:42:26.819Z,97240.09
2023-01-22T03:44:29.422Z,97236.66
2023-01-22T03:46:32.388Z,97239.66
2023-01-22T03:48:35.270Z,97241.88
2023-01-22T03:50:37.938Z,97238.84
2023-01-22T03:52:40.613Z,97243.88
2023-01-22T03:54:43.507Z,97237.97
2023-01-22T03:56:46.199Z,97237.31
2023-01-22T03:58:51.402Z,97232.91
2023-01-22T04:00:57.652Z,97237.59
2023-01-22T04:03:00.367Z,97233.59
2023-01-22T04:05:03.027Z,97229.81
2023-01-22T04:07:05.701Z,97239.84
2023-01-22T04:09:08.353Z,97234.75
2023-01-22T04:11:11.490Z,97242.84
2023-01-22T04:13:14.365Z,97248.34
2023-01-22T04:15:18.403Z,97247.97
2023-01-22T04:17:21.085Z,97240.00
2023-01-22T04:19:23.798Z,97244.53
2023-01-22T04:21:26.466Z,97250.47
2023-01-22T04:23:29.549Z,97244.84
2023-01-22T04:25:32.319Z,97250.19
2023-01-22T04:27:37.748Z,97258.56
2023-01-22T04:29:40.380Z,97251.00
2023-01-22T04:31:44.514Z,97256.72
2023-01-22T04:33:47.196Z,97256.19
2023-01-22T04:35:51.137Z,97258.66
2023-01-22T04:37:53.978Z,97258.94
2023-01-22T04:39:56.725Z,97257.97
2023-01-22T04:41:59.385Z,97257.97
2023-01-22T04:44:02.107Z,97256.97
2023-01-22T04:46:04.826Z,97256.41
2023-01-22T04:48:10.955Z,97262.19
2023-01-22T04:50:17.643Z,97252.31
2023-01-22T04:52:20.769Z,97265.63
2023-01-22T04:54:23.420Z,97266.28
2023-01-22T04:56:28.575Z,97262.59
2023-01-22T04:58:31.234Z,97261.63
2023-01-22T05:00:34.070Z,97264.38
2023-01-22T05:02:37.008Z,97267.41
2023-01-22T05:04:41.040Z,97259.16
2023-01-22T05:06:43.962Z,97257.09
2023-01-22T05:08:46.649Z,97255.75
2023-01-22T05:10:49.297Z,97252.06
2023-01-22T05:12:52.164Z,97258.41
2023-01-22T05:14:54.949Z,97256.72
2023-01-22T05:16:57.627Z,97259.34
2023-01-22T05:19:00.307Z,97257.31
2023-01-22T05:21:04.545Z,97258.56
2023-01-22T05:23:07.225Z,97267.91
2023-01-22T05:25:10.370Z,97254.31
2023-01-22T05:27:13.107Z,97248.41
2023-01-22T05:29:15.798Z,97250.34
2023-01-22T05:31:18.509Z,97259.25
2023-01-22T05:33:21.337Z,97254.03
2023-01-22T05:35:24.259Z,97251.53
2023-01-22T05:37:28.397Z,97243.03
2023-01-22T05:39:31.188Z,97254.84
2023-01-22T05:41:33.827Z,97248.34
2023-01-22T05:43:37.869Z,97248.47
2023-01-22T05:45:40.527Z,97246.00
2023-01-22T05:47:43.233Z,97247.34
2023-01-22T05:49:46.050Z,97258.88
2023-01-22T05:51:48.765Z,97251.06
2023-01-22T05:53:53.095Z,97249.00
2023-01-22T05:55:55.728Z,97245.47
2023-01-22T05:57:58.464Z,97258.59
2023-01-22T06:00:01.175Z,97257.38
2023-01-22T06:02:04.411Z,97248.84
2023-01-22T06:04:07.277Z,97248.03
2023-01-22T06:06:12.836Z,97250.88
2023-01-22T06:08:15.498Z,97251.69
2023-01-22T06:10:20.426Z,97251.47
2023-01-22T06:12:23.694Z,97253.38
2023-01-22T06:14:26.475Z,97257.78
2023-01-22T06:16:29.140Z,97249.94
2023-01-22T06:18:31.884Z,97269.03
2023-01-22T06:20:34.554Z,97258.84
2023-01-22T06:22:37.232Z,97260.88
2023-01-22T06:24:39.967Z,97255.84
2023-01-22T06:26:44.051Z,97270.41
2023-01-22T06:28:46.849Z,97266.16
2023-01-22T06:30:49.913Z,97259.97
2023-01-22T06:32:53.405Z,97268.50
2023-01-22T06:34:56.093Z,97276.22
2023-01-22T06:36:58.813Z,97266.34
2023-01-22T06:39:04.219Z,97276.94
2023-01-22T06:41:06.953Z,97277.09
2023-01-22T06:43:10.945Z,97280.41
2023-01-22T06:45:13.605Z,97277.66
2023-01-22T06:47:16.301Z,97272.28
2023-01-22T06:49:19.123Z,97284.25
2023-01-22T06:51:21.930Z,97272.16
2023-01-22T06:53:24.672Z,97274.31
2023-01-22T06:55:27.417Z,97270.19
2023-01-22T06:57:30.032Z,97273.50
2023-01-22T06:59:36.245Z,97289.72
2023-01-22T07:01:39.720Z,97287.09
2023-01-22T07:03:42.624Z,97295.34
2023-01-22T07:05:45.535Z,97288.59
2023-01-22T07:07:48.992Z,97290.75
2023-01-22T07:09:51.918Z,97290.50
2023-01-22T07:11:57.372Z,97300.69
2023-01-22T07:14:00.341Z,97303.72
2023-01-22T07:16:05.755Z,97303.63
2023-01-22T07:18:09.075Z,97307.03
2023-01-22T07:20:12.995Z,97323.66
2023-01-22T07:22:18.320Z,97305.63
2023-01-22T07:24:21.335Z,97316.91
2023-01-22T07:26:24.084Z,97319.50
2023-01-22T07:28:26.907Z,97307.56
2023-01-22T07:30:30.161Z,97315.53
2023-01-22T07:32:35.255Z,97323.47
2023-01-22T07:34:38.398Z,97318.53
2023-01-22T07:36:41.191Z,97319.09
2023-01-22T07:38:44.093Z,97324.88
2023-01-22T07:40:46.843Z,97329.00
2023-01-22T07:42:49.547Z,97327.38
2023-01-22T07:44:53.348Z,97326.00
2023-01-22T07:46:56.107Z,97331.38
2023-01-22T07:49:00.258Z,97335.75
2023-01-22T07:51:05.376Z,97331.66
2023-01-22T07:53:08.617Z,97334.84
2023-01-22T07:55:11.369Z,97337.53
2023-01-22T07:57:15.489Z,97334.66
2023-01-22T07:59:21.412Z,97343.50
2023-01-22T08:01:24.183Z,97348.59
2023-01-22T08:03:26.889Z,97348.00
2023-01-22T08:05:31.032Z,97341.28
2023-01-22T08:07:33.774Z,97340.19
2023-01-22T08:09:39.556Z,97350.50
2023-01-22T08:11:42.203Z,97345.66
2023-01-22T08:13:45.006Z,97349.31
2023-01-22T08:15:47.718Z,97349.31
2023-01-22T08:17:51.584Z,97348.09
2023-01-22T08:19:54.326Z,97352.50
2023-01-22T08:21:58.415Z,97350.97
2023-01-22T08:24:01.611Z,97349.78
2023-01-22T08:26:05.130Z,97345.47
2023-01-22T08:28:08.767Z,97351.41
2023-01-22T08:30:12.870Z,97366.28
2023-01-22T08:32:15.580Z,97362.34
2023-01-22T08:34:18.228Z,97367.03
2023-01-22T08:36:20.860Z,97356.84
2023-01-22T08:38:24.998Z,97363.31
2023-01-22T08:40:28.001Z,97361.19
2023-01-22T08:42:30.710Z,97352.53
2023-01-22T08:44:33.433Z,97360.97
2023-01-22T08:46:40.088Z,97354.31
2023-01-22T08:48:44.137Z,97356.28
2023-01-22T08:50:46.997Z,97363.84
2023-01-22T08:52:49.720Z,97349.16
2023-01-22T08:54:53.728Z,97364.53
2023-01-22T08:56:56.460Z,97365.78
2023-01-22T08:59:00.733Z,97360.41
2023-01-22T09:01:03.460Z,97357.44
2023-01-22T09:03:06.215Z,97364.59
2023-01-22T09:05:09.771Z,97373.38
2023-01-22T09:07:12.491Z,97371.03
2023-01-22T09:09:15.367Z,97363.78
2023-01-22T09:11:19.354Z,97367.25
2023-01-22T09:13:22.031Z,97360.53
2023-01-22T09:15:24.700Z,97361.06
2023-01-22T09:17:28.039Z,97362.28
2023-01-22T09:19:30.915Z,97365.47
2023-01-22T09:21:36.712Z,97375.50
2023-01-22T09:23:39.433Z,97374.03
2023-01-22T09:25:42.123Z,97386.91
2023-01-22T09:27:46.128Z,97384.19
2023-01-22T09:29:48.903Z,97393.81
2023-01-22T09:31:52.008Z,97385.84
2023-01-22T09:33:55.596Z,97390.25
2023-01-22T09:36:07.788Z,97390.53
2023-01-22T09:38:15.042Z,97392.75
2023-01-22T09:40:25.956Z,97401.00
2023-01-22T09:42:33.288Z,97394.00
2023-01-22T09:44:40.335Z,97398.56
2023-01-22T09:46:47.382Z,97400.59
2023-01-22T09:48:54.150Z,97387.94
2023-01-22T09:50:56.943Z,97389.47
2023-01-22T09:53:04.998Z,97401.44
2023-01-22T09:55:13.631Z,97394.56
2023-01-22T09:57:30.769Z,97398.25
2023-01-22T09:59:44.992Z,97402.16
2023-01-22T10:01:52.231Z,97398.59
2023-01-22T10:03:59.052Z,97404.66
2023-01-22T10:06:06.075Z,97399.28
2023-01-22T10:08:13.535Z,97408.22
2023-01-22T10:10:20.779Z,97406.31
2023-01-22T10:12:23.579Z,97396.72
2023-01-22T10:14:29.967Z,97400.47
2023-01-22T10:16:33.987Z,97399.47
2023-01-22T10:18:43.103Z,97413.25
2023-01-22T10:20:46.056Z,97410.72
2023-01-22T10:22:49.218Z,97403.47
2023-01-22T10:24:52.856Z,97400.72
2023-01-22T10:26:58.805Z,97407.06
2023-01-22T10:29:07.359Z,97405.56
2023-01-22T10:31:24.400Z,97403.34
2023-01-22T10:33:29.275Z,97410.22
2023-01-22T10:35:32.915Z,97401.72
2023-01-22T10:37:45.820Z,97396.22
2023-01-22T10:39:50.476Z,97393.16
2023-01-22T10:42:02.136Z,97413.44
2023-01-22T10:44:26.693Z,97394.41
2023-01-22T10:46:29.651Z,97391.53
2023-01-22T10:48:34.217Z,97398.41
2023-01-22T10:50:37.137Z,97395.66
2023-01-22T10:52:42.962Z,97395.22
2023-01-22T10:54:52.628Z,97392.06
2023-01-22T10:57:06.408Z,97397.59
2023-01-22T10:59:22.846Z,97393.19
2023-01-22T11:01:32.952Z,97384.34
2023-01-22T11:03:39.226Z,97396.63
2023-01-22T11:05:46.916Z,97396.63
2023-01-22T11:07:52.915Z,97392.06
2023-01-22T11:10:04.343Z,97391.38
2023-01-22T11:12:16.159Z,97406.81
2023-01-22T11:14:23.828Z,97388.22
2023-01-22T11:16:26.537Z,97393.47
2023-01-22T11:18:34.224Z,97398.13
2023-01-22T11:20:46.967Z,97387.13
2023-01-22T11:23:02.622Z,97406.53
2023-01-22T11:25:10.084Z,97392.88
2023-01-22T11:27:31.527Z,97391.94
2023-01-22T11:29:57.007Z,97402.38
2023-01-22T11:32:20.026Z,97388.09
2023-01-22T11:34:43.553Z,97389.59
2023-01-22T11:36:54.178Z,97400.06
2023-01-22T11:39:04.032Z,97386.97
2023-01-22T11:41:29.051Z,97382.41
2023-01-22T11:43:46.409Z,97385.72
2023-01-22T11:46:03.164Z,97378.84
2023-01-22T11:48:22.183Z,97385.72
2023-01-22T11:50:29.195Z,97382.16
2023-01-22T11:52:45.354Z,97393.19
2023-01-22T11:55:01.185Z,97390.69
2023-01-22T11:57:12.786Z,97402.94
2023-01-22T11:59:27.232Z,97389.31
2023-01-22T12:01:42.634Z,97388.34
2023-01-22T12:04:15.784Z,97393.28
2023-01-22T12:06:31.959Z,97400.59
2023-01-22T12:08:48.363Z,97405.44
2023-01-22T12:11:21.621Z,97391.09
2023-01-22T12:13:44.226Z,97385.47
2023-01-22T12:15:53.949Z,97392.88
2023-01-22T12:18:09.668Z,97390.97
2023-01-22T12:20:37.133Z,97400.03
2023-01-22T12:22:45.125Z,97392.63
2023-01-22T12:24:56.163Z,97396.19
2023-01-22T12:27:03.495Z,97386.97
2023-01-22T12:29:14.120Z,97390.00
2023-01-22T12:31:22.018Z,97384.34
2023-01-22T12:33:27.343Z,97389.72
2023-01-22T12:35:32.571Z,97397.59
2023-01-22T12:37:43.156Z,97394.81
2023-01-22T12:39:59.705Z,97389.31
2023-01-22T12:42:15.386Z,97394.69
2023-01-22T12:44:39.025Z,97390.97
2023-01-22T12:46:54.890Z,97390.97
2023-01-22T12:49:05.697Z,97385.19
2023-01-22T12:51:25.867Z,97384.78
2023-01-22T12:53:30.456Z,97391.25
2023-01-22T12:55:37.815Z,97398.13
2023-01-22T12:57:42.131Z,97389.03
2023-01-22T12:59:47.658Z,97385.88
2023-01-22T13:02:00.109Z,97384.06
2023-01-22T13:04:05.815Z,97377.19
2023-01-22T13:06:19.865Z,97377.63
2023-01-22T13:08:39.852Z,97384.91
2023-01-22T13:10:54.182Z,97383.53
2023-01-22T13:12:58.513Z,97389.03
2023-01-22T13:15:02.065Z,97381.47
2023-01-22T13:17:17.820Z,97388.47
2023-01-22T13:19:22.982Z,97386.84
2023-01-22T13:21:28.551Z,97382.28
2023-01-22T13:23:33.158Z,97384.91
2023-01-22T13:25:36.091Z,97380.25
2023-01-22T13:27:40.257Z,97390.41
2023-01-22T13:29:45.682Z,97384.66
2023-01-22T13:31:55.889Z,97388.34
2023-01-22T13:34:00.187Z,97387.66
2023-01-22T13:36:10.766Z,97388.91
2023-01-22T13:38:21.542Z,97392.63
2023-01-22T13:40:27.358Z,97398.69
2023-01-22T13:42:30.095Z,97395.50
2023-01-22T13:44:36.924Z,97397.28
2023-01-22T13:46:40.099Z,97395.38
2023-01-22T13:48:43.322Z,97386.69
2023-01-22T13:50:48.701Z,97399.53
2023-01-22T13:52:51.744Z,97402.97
2023-01-22T13:55:01.114Z,97415.47
2023-01-22T13:57:05.342Z,97414.53
2023-01-22T13:59:18.235Z,97405.16
2023-01-22T14:01:30.916Z,97410.38
2023-01-22T14:03:33.619Z,97413.00
2023-01-22T14:05:37.278Z,97405.69
2023-01-22T14:07:40.990Z,97409.94
2023-01-22T14:09:43.696Z,97415.47
2023-01-22T14:11:46.368Z,97409.66
2023-01-22T14:13:51.303Z,97423.03
2023-01-22T14:16:01.958Z,97413.53
2023-01-22T14:18:11.528Z,97428.28
2023-01-22T14:20:15.094Z,97428.69
2023-01-22T14:22:18.113Z,97431.16
2023-01-22T14:24:20.791Z,97427.03
2023-01-22T14:26:23.489Z,97436.66
2023-01-22T14:28:29.549Z,97443.84
2023-01-22T14:30:32.314Z,97439.84
2023-01-22T14:32:35.087Z,97441.91
2023-01-22T14:34:39.086Z,97452.22
2023-01-22T14:36:41.769Z,97449.34
2023-01-22T14:38:46.387Z,97454.84
2023-01-22T14:40:49.230Z,97460.09
2023-01-22T14:42:52.638Z,97458.41
2023-01-22T14:44:55.560Z,97466.25
2023-01-22T14:46:58.288Z,97460.78
2023-01-22T14:49:01.891Z,97463.25
2023-01-22T14:51:10.677Z,97462.16
2023-01-22T14:53:14.026Z,97457.88
2023-01-22T14:55:17.019Z,97456.22
2023-01-22T14:57:19.788Z,97459.53
2023-01-22T14:59:22.430Z,97456.38
2023-01-22T15:01:25.284Z,97474.41
2023-01-22T15:03:31.609Z,97459.94
2023-01-22T15:05:35.743Z,97464.47
2023-01-22T15:07:39.938Z,97465.59
2023-01-22T15:09:43.632Z,97456.38
2023-01-22T15:11:46.685Z,97464.06
2023-01-22T15:13:52.595Z,97470.00
2023-01-22T15:15:55.754Z,97462.41
2023-01-22T15:18:00.220Z,97466.97
2023-01-22T15:20:04.630Z,97475.78
2023-01-22T15:22:07.273Z,97474.81
2023-01-22T15:24:11.705Z,97490.91
2023-01-22T15:26:25.513Z,97485.38
2023-01-22T15:28:28.553Z,97479.06
2023-01-22T15:30:31.312Z,97481.81
2023-01-22T15:32:36.925Z,97477.13
2023-01-22T15:34:39.572Z,97478.50
2023-01-22T15:36:42.269Z,97478.38
2023-01-22T15:38:44.992Z,97486.75
2023-01-22T15:40:49.005Z,97474.66
2023-01-22T15:42:51.685Z,97487.16
2023-01-22T15:44:54.436Z,97478.78
2023-01-22T15:46:58.719Z,97493.38
2023-01-22T15:49:01.656Z,97482.22
2023-01-22T15:51:09.169Z,97475.47
2023-01-22T15:53:11.859Z,97475.06
2023-01-22T15:55:14.805Z,97475.78
2023-01-22T15:57:18.954Z,97490.34
2023-01-22T15:59:21.796Z,97482.78
2023-01-22T16:01:25.835Z,97482.59
2023-01-22T16:03:28.599Z,97488.78
2023-01-22T16:05:31.337Z,97488.38
2023-01-22T16:07:34.283Z,97485.91
2023-01-22T16:09:37.140Z,97480.66
2023-01-22T16:11:39.745Z,97499.25
2023-01-22T16:13:44.429Z,97488.34
2023-01-22T16:15:57.578Z,97500.22
2023-01-22T16:18:01.132Z,97494.44
2023-01-22T16:20:05.302Z,97498.00
2023-01-22T16:22:08.508Z,97505.03
2023-01-22T16:24:11.181Z,97510.69
2023-01-22T16:26:17.345Z,97506.91
2023-01-22T16:28:20.199Z,97519.03
2023-01-22T16:30:24.279Z,97513.94
2023-01-22T16:32:27.163Z,97512.41
2023-01-22T16:34:29.917Z,97513.94
2023-01-22T16:36:33.367Z,97527.69
2023-01-22T16:38:37.417Z,97513.75
2023-01-22T16:40:40.133Z,97528.75
2023-01-22T16:42:58.862Z,97521.75
2023-01-22T16:45:01.644Z,97523.66
2023-01-22T16:47:05.824Z,97525.03
2023-01-22T16:49:11.137Z,97527.16
2023-01-22T16:51:17.738Z,97535.69
2023-01-22T16:53:20.463Z,97533.75
2023-01-22T16:55:23.788Z,97540.63
2023-01-22T16:57:26.707Z,97535.69
2023-01-22T16:59:30.188Z,97540.63
2023-01-22T17:01:32.872Z,97545.19
2023-01-22T17:03:37.086Z,97539.69
2023-01-22T17:05:40.220Z,97544.81
2023-01-22T17:07:42.947Z,97540.63
2023-01-22T17:09:45.746Z,97540.78
2023-01-22T17:11:51.130Z,97545.63
2023-01-22T17:13:53.907Z,97550.59
2023-01-22T17:15:56.635Z,97551.94
2023-01-22T17:17:59.909Z,97549.44
2023-01-22T17:20:04.528Z,97558.56
2023-01-22T17:22:07.305Z,97552.66
2023-01-22T17:24:11.930Z,97551.69
2023-01-22T17:26:16.490Z,97550.28
2023-01-22T17:28:19.170Z,97558.94
2023-01-22T17:30:22.056Z,97554.44
2023-01-22T17:32:26.392Z,97553.56
2023-01-22T17:34:29.021Z,97560.78
2023-01-22T17:36:32.859Z,97567.97
2023-01-22T17:38:38.522Z,97565.63
2023-01-22T17:40:42.163Z,97566.59
2023-01-22T17:42:44.979Z,97564.44
2023-01-22T17:44:47.999Z,97568.56
2023-01-22T17:46:54.711Z,97573.81
2023-01-22T17:48:57.587Z,97570.50
2023-01-22T17:51:03.923Z,97571.88
2023-01-22T17:53:08.025Z,97576.56
2023-01-22T17:55:11.488Z,97574.06
2023-01-22T17:57:14.169Z,97581.38
2023-01-22T17:59:16.842Z,97581.09
2023-01-22T18:01:23.610Z,97570.19
2023-01-22T18:03:26.344Z,97586.69
2023-01-22T18:05:29.237Z,97585.88
2023-01-22T18:07:32.041Z,97584.22
2023-01-22T18:09:36.019Z,97586.97
2023-01-22T18:11:39.669Z,97583.81
2023-01-22T18:13:42.712Z,97592.34
2023-01-22T18:15:46.637Z,97587.81
2023-01-22T18:17:49.801Z,97598.00
2023-01-22T18:19:52.511Z,97602.16
2023-01-22T18:21:55.233Z,97608.72
2023-01-22T18:23:59.911Z,97598.81
2023-01-22T18:26:06.980Z,97606.75
2023-01-22T18:28:10.118Z,97600.47
2023-01-22T18:30:15.312Z,97619.59
2023-01-22T18:32:18.254Z,97604.53
2023-01-22T18:34:20.928Z,97602.88
2023-01-22T18:36:25.483Z,97603.44
2023-01-22T18:38:28.671Z,97604.03
2023-01-22T18:40:31.724Z,97606.75
2023-01-22T18:42:35.811Z,97611.28
2023-01-22T18:44:39.818Z,97606.72
2023-01-22T18:46:47.146Z,97611.63
2023-01-22T18:48:54.542Z,97608.63
2023-01-22T18:50:57.310Z,97610.03
2023-01-22T18:53:02.048Z,97599.72
2023-01-22T18:55:05.125Z,97603.25
2023-01-22T18:57:07.858Z,97603.97
2023-01-22T18:59:12.900Z,97613.06
2023-01-22T19:01:18.207Z,97601.66
2023-01-22T19:03:22.892Z,97607.56
2023-01-22T19:05:26.874Z,97609.50
2023-01-22T19:07:29.634Z,97614.72
2023-01-22T19:09:32.446Z,97623.28
2023-01-22T19:11:38.859Z,97612.78
2023-01-22T19:13:42.237Z,97613.28
2023-01-22T19:15:46.425Z,97601.50
2023-01-22T19:17:49.155Z,97610.03
2023-01-22T19:19:51.943Z,97598.34
2023-01-22T19:21:57.892Z,97606.72
2023-01-22T19:24:02.457Z,97611.06
2023-01-22T19:26:07.715Z,97609.53
2023-01-22T19:28:10.451Z,97600.84
2023-01-22T19:30:13.656Z,97614.94
2023-01-22T19:32:22.275Z,97616.91
2023-01-22T19:34:25.502Z,97613.16
2023-01-22T19:36:29.953Z,97615.06
2023-01-22T19:38:32.787Z,97612.19
2023-01-22T19:40:35.413Z,97615.50
2023-01-22T19:42:40.063Z,97614.94
2023-01-22T19:44:43.138Z,97626.22
2023-01-22T19:46:45.803Z,97611.38
2023-01-22T19:48:50.138Z,97615.78
2023-01-22T19:50:58.971Z,97611.38
2023-01-22T19:53:01.733Z,97613.72
2023-01-22T19:55:04.582Z,97615.28
2023-01-22T19:57:07.480Z,97616.34
2023-01-22T19:59:14.536Z,97618.03
2023-01-22T20:01:17.997Z,97624.63
2023-01-22T20:03:21.553Z,97615.78
2023-01-22T20:05:25.750Z,97618.25
2023-01-22T20:07:28.418Z,97619.22
2023-01-22T20:09:32.003Z,97622.16
2023-01-22T20:11:34.993Z,97614.31
2023-01-22T20:13:39.424Z,97625.72
2023-01-22T20:15:43.072Z,97634.06
2023-01-22T20:17:45.869Z,97633.13
2023-01-22T20:19:48.667Z,97629.88
2023-01-22T20:21:52.734Z,97637.44
2023-01-22T20:23:55.782Z,97637.72
2023-01-22T20:26:00.441Z,97631.78
2023-01-22T20:28:03.397Z,97635.50
2023-01-22T20:30:07.768Z,97628.97
2023-01-22T20:32:10.388Z,97629.75
2023-01-22T20:34:13.232Z,97639.91
2023-01-22T20:36:16.320Z,97632.88
2023-01-22T20:38:20.367Z,97637.28
2023-01-22T20:40:23.093Z,97632.34
2023-01-22T20:42:25.777Z,97639.09
2023-01-22T20:44:28.708Z,97636.50
2023-01-22T20:46:31.659Z,97637.22
2023-01-22T20:48:34.923Z,97634.84
2023-01-22T20:50:41.784Z,97635.78
2023-01-22T20:52:44.490Z,97630.84
2023-01-22T20:55:01.007Z,97629.31
2023-01-22T20:57:04.874Z,97625.75
2023-01-22T20:59:10.809Z,97624.72
2023-01-22T21:01:15.758Z,97633.84
2023-01-22T21:03:18.712Z,97630.13
2023-01-22T21:05:21.671Z,97638.25
2023-01-22T21:07:26.681Z,97643.97
2023-01-22T21:09:30.953Z,97637.34
2023-01-22T21:11:36.633Z,97634.88
2023-01-22T21:13:39.697Z,97635.94
2023-01-22T21:15:42.508Z,97634.75
2023-01-22T21:17:45.159Z,97637.59
2023-01-22T21:19:48.353Z,97632.88
2023-01-22T21:21:52.400Z,97630.00
2023-01-22T21:23:56.962Z,97641.97
2023-01-22T21:26:04.970Z,97625.72
2023-01-22T21:28:09.287Z,97640.59
2023-01-22T21:30:13.296Z,97628.75
2023-01-22T21:32:16.903Z,97627.09
2023-01-22T21:34:22.394Z,97644.03
2023-01-22T21:36:26.012Z,97639.25
